sensor_id;sensor_type;location;lat;lon;timestamp;temperature;humidity
1205;DHT22;592;48.764;9.174;2023-02-27T00:00:30;-1.70;99.90
1205;DHT22;592;48.764;9.174;2023-02-27T00:02:56;-1.70;99.90
1205;DHT22;592;48.764;9.174;2023-02-27T00:05:23;-1.70;99.90
1205;DHT22;592;48.764;9.174;2023-02-27T00:07:50;-1.70;99.90
1205;DHT22;592;48.764;9.174;2023-02-27T00:10:18;-1.70;99.90
1205;DHT22;592;48.764;9.174;2023-02-27T00:12:46;-1.70;99.90
1205;DHT22;592;48.764;9.174;2023-02-27T00:15:15;-1.70;99.90
1205;DHT22;592;48.764;9.174;2023-02-27T00:17:42;-1.70;99.90
1205;DHT22;592;48.764;9.174;2023-02-27T00:20:12;-1.70;99.90
1205;DHT22;592;48.764;9.174;2023-02-27T00:22:40;-1.70;99.90
1205;DHT22;592;48.764;9.174;2023-02-27T00:25:08;-1.70;99.90
1205;DHT22;592;48.764;9.174;2023-02-27T00:27:35;-1.70;99.90
1205;DHT22;592;48.764;9.174;2023-02-27T00:30:05;-1.70;99.90
1205;DHT22;592;48.764;9.174;2023-02-27T00:32:32;-1.80;99.90
1205;DHT22;592;48.764;9.174;2023-02-27T00:35:01;-1.80;99.90
1205;DHT22;592;48.764;9.174;2023-02-27T00:37:27;-1.80;99.90
1205;DHT22;592;48.764;9.174;2023-02-27T00:39:54;-1.80;99.90
1205;DHT22;592;48.764;9.174;2023-02-27T00:42:21;-1.80;99.90
1205;DHT22;592;48.764;9.174;2023-02-27T00:44:47;-1.80;99.90
1205;DHT22;592;48.764;9.174;2023-02-27T00:47:15;-1.80;99.90
1205;DHT22;592;48.764;9.174;2023-02-27T00:49:42;-1.80;99.90
1205;DHT22;592;48.764;9.174;2023-02-27T00:52:09;-1.80;99.90
1205;DHT22;592;48.764;9.174;2023-02-27T00:54:36;-1.80;99.90
1205;DHT22;592;48.764;9.174;2023-02-27T00:57:03;-1.80;99.90
1205;DHT22;592;48.764;9.174;2023-02-27T00:59:29;-1.80;99.90
1205;DHT22;592;48.764;9.174;2023-02-27T01:01:56;-1.80;99.90
1205;DHT22;592;48.764;9.174;2023-02-27T01:04:24;-1.80;99.90
1205;DHT22;592;48.764;9.174;2023-02-27T01:06:51;-1.90;99.90
1205;DHT22;592;48.764;9.174;2023-02-27T01:09:17;-1.90;99.90
1205;DHT22;592;48.764;9.174;2023-02-27T01:11:44;-1.90;99.90
1205;DHT22;592;48.764;9.174;2023-02-27T01:14:11;-1.90;99.90
1205;DHT22;592;48.764;9.174;2023-02-27T01:16:38;-1.90;99.90
1205;DHT22;592;48.764;9.174;2023-02-27T01:19:05;-1.80;99.90
1205;DHT22;592;48.764;9.174;2023-02-27T01:21:33;-1.80;99.90
1205;DHT22;592;48.764;9.174;2023-02-27T01:24:00;-1.90;99.90
1205;DHT22;592;48.764;9.174;2023-02-27T01:26:27;-1.90;99.90
1205;DHT22;592;48.764;9.174;2023-02-27T01:28:53;-1.80;99.90
1205;DHT22;592;48.764;9.174;2023-02-27T01:31:20;-1.80;99.90
1205;DHT22;592;48.764;9.174;2023-02-27T01:33:47;-1.80;99.90
1205;DHT22;592;48.764;9.174;2023-02-27T01:36:14;-1.80;99.90
1205;DHT22;592;48.764;9.174;2023-02-27T01:38:42;-1.80;99.90
1205;DHT22;592;48.764;9.174;2023-02-27T01:41:09;-1.80;99.90
1205;DHT22;592;48.764;9.174;2023-02-27T01:43:55;-1.80;99.90
1205;DHT22;592;48.764;9.174;2023-02-27T01:46:22;-1.90;99.90
1205;DHT22;592;48.764;9.174;2023-02-27T01:48:50;-1.90;99.90
1205;DHT22;592;48.764;9.174;2023-02-27T01:51:21;-1.90;99.90
1205;DHT22;592;48.764;9.174;2023-02-27T01:53:51;-1.80;99.90
1205;DHT22;592;48.764;9.174;2023-02-27T01:56:20;-1.80;99.90
1205;DHT22;592;48.764;9.174;2023-02-27T01:58:48;-1.80;99.90
1205;DHT22;592;48.764;9.174;2023-02-27T02:01:15;-1.80;99.90
1205;DHT22;592;48.764;9.174;2023-02-27T02:03:47;-1.80;99.90
1205;DHT22;592;48.764;9.174;2023-02-27T02:06:14;-1.80;99.90
1205;DHT22;592;48.764;9.174;2023-02-27T02:08:43;-1.80;99.90
1205;DHT22;592;48.764;9.174;2023-02-27T02:11:15;-1.80;99.90
1205;DHT22;592;48.764;9.174;2023-02-27T02:13:43;-1.80;99.90
1205;DHT22;592;48.764;9.174;2023-02-27T02:16:20;-1.80;99.90
1205;DHT22;592;48.764;9.174;2023-02-27T02:18:55;-1.80;99.90
1205;DHT22;592;48.764;9.174;2023-02-27T02:27:43;-1.70;99.90
1205;DHT22;592;48.764;9.174;2023-02-27T02:30:47;-1.80;99.90
1205;DHT22;592;48.764;9.174;2023-02-27T02:36:58;-1.80;99.90
1205;DHT22;592;48.764;9.174;2023-02-27T02:39:44;-1.70;99.90
1205;DHT22;592;48.764;9.174;2023-02-27T02:42:20;-1.70;99.90
1205;DHT22;592;48.764;9.174;2023-02-27T02:44:54;-1.70;99.90
1205;DHT22;592;48.764;9.174;2023-02-27T02:47:32;-1.70;99.90
1205;DHT22;592;48.764;9.174;2023-02-27T02:50:07;-1.70;99.90
1205;DHT22;592;48.764;9.174;2023-02-27T02:52:45;-1.70;99.90
1205;DHT22;592;48.764;9.174;2023-02-27T02:55:20;-1.70;99.90
1205;DHT22;592;48.764;9.174;2023-02-27T02:57:51;-1.60;99.90
1205;DHT22;592;48.764;9.174;2023-02-27T03:00:24;-1.60;99.90
1205;DHT22;592;48.764;9.174;2023-02-27T03:02:57;-1.70;99.90
1205;DHT22;592;48.764;9.174;2023-02-27T03:05:30;-1.70;99.90
1205;DHT22;592;48.764;9.174;2023-02-27T03:08:01;-1.60;99.90
1205;DHT22;592;48.764;9.174;2023-02-27T03:10:33;-1.60;99.90
1205;DHT22;592;48.764;9.174;2023-02-27T03:13:04;-1.60;99.90
1205;DHT22;592;48.764;9.174;2023-02-27T03:15:37;-1.60;99.90
1205;DHT22;592;48.764;9.174;2023-02-27T03:18:07;-1.60;99.90
1205;DHT22;592;48.764;9.174;2023-02-27T03:20:44;-1.60;99.90
1205;DHT22;592;48.764;9.174;2023-02-27T03:23:17;-1.60;99.90
1205;DHT22;592;48.764;9.174;2023-02-27T03:25:48;-1.60;99.90
1205;DHT22;592;48.764;9.174;2023-02-27T03:28:19;-1.70;99.90
1205;DHT22;592;48.764;9.174;2023-02-27T03:30:52;-1.70;99.90
1205;DHT22;592;48.764;9.174;2023-02-27T03:33:27;-1.70;99.90
1205;DHT22;592;48.764;9.174;2023-02-27T03:36:01;-1.70;99.90
1205;DHT22;592;48.764;9.174;2023-02-27T03:38:34;-1.70;99.90
1205;DHT22;592;48.764;9.174;2023-02-27T03:41:09;-1.70;99.90
1205;DHT22;592;48.764;9.174;2023-02-27T03:43:46;-1.70;99.90
1205;DHT22;592;48.764;9.174;2023-02-27T03:46:18;-1.70;99.90
1205;DHT22;592;48.764;9.174;2023-02-27T03:48:46;-1.70;99.90
1205;DHT22;592;48.764;9.174;2023-02-27T03:51:15;-1.60;99.90
1205;DHT22;592;48.764;9.174;2023-02-27T03:53:47;-1.70;99.90
1205;DHT22;592;48.764;9.174;2023-02-27T03:56:19;-1.70;99.90
1205;DHT22;592;48.764;9.174;2023-02-27T03:58:47;-1.70;99.90
1205;DHT22;592;48.764;9.174;2023-02-27T04:01:15;-1.70;99.90
1205;DHT22;592;48.764;9.174;2023-02-27T04:03:48;-1.70;99.90
1205;DHT22;592;48.764;9.174;2023-02-27T04:06:14;-1.70;99.90
1205;DHT22;592;48.764;9.174;2023-02-27T04:09:03;-1.70;99.90
1205;DHT22;592;48.764;9.174;2023-02-27T04:11:52;-1.70;99.90
1205;DHT22;592;48.764;9.174;2023-02-27T04:14:41;-1.70;99.90
1205;DHT22;592;48.764;9.174;2023-02-27T04:17:25;-1.70;99.90
1205;DHT22;592;48.764;9.174;2023-02-27T04:20:16;-1.70;99.90
1205;DHT22;592;48.764;9.174;2023-02-27T04:22:45;-1.70;99.90
1205;DHT22;592;48.764;9.174;2023-02-27T04:25:30;-1.70;99.90
1205;DHT22;592;48.764;9.174;2023-02-27T04:28:06;-1.70;99.90
1205;DHT22;592;48.764;9.174;2023-02-27T04:30:40;-1.80;99.90
1205;DHT22;592;48.764;9.174;2023-02-27T04:33:12;-1.80;99.90
1205;DHT22;592;48.764;9.174;2023-02-27T04:35:48;-1.80;99.90
1205;DHT22;592;48.764;9.174;2023-02-27T04:38:19;-1.80;99.90
1205;DHT22;592;48.764;9.174;2023-02-27T04:40:51;-1.80;99.90
1205;DHT22;592;48.764;9.174;2023-02-27T04:43:23;-1.90;99.90
1205;DHT22;592;48.764;9.174;2023-02-27T04:45:52;-1.80;99.90
1205;DHT22;592;48.764;9.174;2023-02-27T04:48:22;-1.80;99.90
1205;DHT22;592;48.764;9.174;2023-02-27T04:50:53;-1.80;99.90
1205;DHT22;592;48.764;9.174;2023-02-27T04:53:25;-1.80;99.90
1205;DHT22;592;48.764;9.174;2023-02-27T04:55:54;-1.80;99.90
1205;DHT22;592;48.764;9.174;2023-02-27T04:58:26;-1.90;99.90
1205;DHT22;592;48.764;9.174;2023-02-27T05:00:58;-1.80;99.90
1205;DHT22;592;48.764;9.174;2023-02-27T05:03:29;-1.90;99.90
1205;DHT22;592;48.764;9.174;2023-02-27T05:05:59;-2.00;99.90
1205;DHT22;592;48.764;9.174;2023-02-27T05:08:32;-2.00;99.90
1205;DHT22;592;48.764;9.174;2023-02-27T05:11:06;-2.10;99.90
1205;DHT22;592;48.764;9.174;2023-02-27T05:13:37;-2.00;99.90
1205;DHT22;592;48.764;9.174;2023-02-27T05:16:10;-2.00;99.90
1205;DHT22;592;48.764;9.174;2023-02-27T05:18:39;-2.00;99.90
1205;DHT22;592;48.764;9.174;2023-02-27T05:21:15;-2.00;99.90
1205;DHT22;592;48.764;9.174;2023-02-27T05:23:53;-2.00;99.90
1205;DHT22;592;48.764;9.174;2023-02-27T05:26:39;-2.00;99.90
1205;DHT22;592;48.764;9.174;2023-02-27T05:29:11;-2.00;99.90
1205;DHT22;592;48.764;9.174;2023-02-27T05:31:46;-2.00;99.90
1205;DHT22;592;48.764;9.174;2023-02-27T05:34:19;-2.00;99.90
1205;DHT22;592;48.764;9.174;2023-02-27T05:36:53;-2.10;99.90
1205;DHT22;592;48.764;9.174;2023-02-27T05:39:26;-2.10;99.90
1205;DHT22;592;48.764;9.174;2023-02-27T05:41:58;-2.20;99.90
1205;DHT22;592;48.764;9.174;2023-02-27T05:44:29;-2.20;99.90
1205;DHT22;592;48.764;9.174;2023-02-27T05:47:00;-2.30;99.90
1205;DHT22;592;48.764;9.174;2023-02-27T05:49:31;-2.20;99.90
1205;DHT22;592;48.764;9.174;2023-02-27T05:52:03;-2.30;99.90
1205;DHT22;592;48.764;9.174;2023-02-27T05:54:36;-2.30;99.90
1205;DHT22;592;48.764;9.174;2023-02-27T05:57:08;-2.30;99.90
1205;DHT22;592;48.764;9.174;2023-02-27T05:59:41;-2.30;99.90
1205;DHT22;592;48.764;9.174;2023-02-27T06:02:09;-2.30;99.90
1205;DHT22;592;48.764;9.174;2023-02-27T06:04:36;-2.30;99.90
1205;DHT22;592;48.764;9.174;2023-02-27T06:07:03;-2.40;99.90
1205;DHT22;592;48.764;9.174;2023-02-27T06:09:30;-2.40;99.90
1205;DHT22;592;48.764;9.174;2023-02-27T06:11:58;-2.40;99.90
1205;DHT22;592;48.764;9.174;2023-02-27T06:14:25;-2.40;99.90
1205;DHT22;592;48.764;9.174;2023-02-27T06:16:53;-2.40;99.90
1205;DHT22;592;48.764;9.174;2023-02-27T06:19:20;-2.40;99.90
1205;DHT22;592;48.764;9.174;2023-02-27T06:21:47;-2.40;99.90
1205;DHT22;592;48.764;9.174;2023-02-27T06:24:14;-2.30;99.90
1205;DHT22;592;48.764;9.174;2023-02-27T06:26:41;-2.30;99.90
1205;DHT22;592;48.764;9.174;2023-02-27T06:29:07;-2.30;99.90
1205;DHT22;592;48.764;9.174;2023-02-27T06:31:34;-2.30;99.90
1205;DHT22;592;48.764;9.174;2023-02-27T06:34:02;-2.30;99.90
1205;DHT22;592;48.764;9.174;2023-02-27T06:36:29;-2.30;99.90
1205;DHT22;592;48.764;9.174;2023-02-27T06:38:55;-2.30;99.90
1205;DHT22;592;48.764;9.174;2023-02-27T06:41:22;-2.30;99.90
1205;DHT22;592;48.764;9.174;2023-02-27T06:43:49;-2.30;99.90
1205;DHT22;592;48.764;9.174;2023-02-27T06:46:16;-2.40;99.90
1205;DHT22;592;48.764;9.174;2023-02-27T06:48:42;-2.30;99.90
1205;DHT22;592;48.764;9.174;2023-02-27T06:51:11;-2.40;99.90
1205;DHT22;592;48.764;9.174;2023-02-27T06:53:37;-2.30;99.90
1205;DHT22;592;48.764;9.174;2023-02-27T06:56:05;-2.30;99.90
1205;DHT22;592;48.764;9.174;2023-02-27T06:58:32;-2.30;99.90
1205;DHT22;592;48.764;9.174;2023-02-27T07:00:58;-2.20;99.90
1205;DHT22;592;48.764;9.174;2023-02-27T07:03:25;-2.20;99.90
1205;DHT22;592;48.764;9.174;2023-02-27T07:05:52;-2.10;99.90
1205;DHT22;592;48.764;9.174;2023-02-27T07:08:20;-2.00;99.90
1205;DHT22;592;48.764;9.174;2023-02-27T07:10:47;-2.00;99.90
1205;DHT22;592;48.764;9.174;2023-02-27T07:13:14;-2.00;99.90
1205;DHT22;592;48.764;9.174;2023-02-27T07:15:41;-1.80;99.90
1205;DHT22;592;48.764;9.174;2023-02-27T07:18:09;-1.80;99.90
1205;DHT22;592;48.764;9.174;2023-02-27T07:20:35;-1.70;99.90
1205;DHT22;592;48.764;9.174;2023-02-27T07:23:02;-1.70;99.90
1205;DHT22;592;48.764;9.174;2023-02-27T07:25:31;-1.70;99.90
1205;DHT22;592;48.764;9.174;2023-02-27T07:27:57;-1.70;99.90
1205;DHT22;592;48.764;9.174;2023-02-27T07:30:24;-1.70;99.90
1205;DHT22;592;48.764;9.174;2023-02-27T07:32:51;-1.70;99.90
1205;DHT22;592;48.764;9.174;2023-02-27T07:35:17;-1.60;99.90
1205;DHT22;592;48.764;9.174;2023-02-27T07:37:45;-1.60;99.90
1205;DHT22;592;48.764;9.174;2023-02-27T07:40:12;-1.60;99.90
1205;DHT22;592;48.764;9.174;2023-02-27T07:42:41;-1.60;99.90
1205;DHT22;592;48.764;9.174;2023-02-27T07:45:08;-1.60;99.90
1205;DHT22;592;48.764;9.174;2023-02-27T07:47:35;-1.60;99.90
1205;DHT22;592;48.764;9.174;2023-02-27T07:50:02;-1.60;99.90
1205;DHT22;592;48.764;9.174;2023-02-27T07:52:29;-1.60;99.90
1205;DHT22;592;48.764;9.174;2023-02-27T07:54:56;-1.50;99.90
1205;DHT22;592;48.764;9.174;2023-02-27T07:57:22;-1.50;99.90
1205;DHT22;592;48.764;9.174;2023-02-27T07:59:51;-1.40;99.90
1205;DHT22;592;48.764;9.174;2023-02-27T08:02:17;-1.30;99.90
1205;DHT22;592;48.764;9.174;2023-02-27T08:04:44;-1.30;99.90
1205;DHT22;592;48.764;9.174;2023-02-27T08:07:11;-1.30;99.90
1205;DHT22;592;48.764;9.174;2023-02-27T08:09:38;-1.20;99.90
1205;DHT22;592;48.764;9.174;2023-02-27T08:12:04;-1.20;99.90
1205;DHT22;592;48.764;9.174;2023-02-27T08:14:31;-1.30;99.90
1205;DHT22;592;48.764;9.174;2023-02-27T08:16:59;-1.20;99.90
1205;DHT22;592;48.764;9.174;2023-02-27T08:19:26;-1.20;99.90
1205;DHT22;592;48.764;9.174;2023-02-27T08:21:53;-1.10;99.90
1205;DHT22;592;48.764;9.174;2023-02-27T08:24:19;-1.10;99.90
1205;DHT22;592;48.764;9.174;2023-02-27T08:26:46;-1.00;99.90
1205;DHT22;592;48.764;9.174;2023-02-27T08:29:13;-1.00;99.90
1205;DHT22;592;48.764;9.174;2023-02-27T08:31:40;-0.90;99.90
1205;DHT22;592;48.764;9.174;2023-02-27T08:34:08;-0.80;99.90
1205;DHT22;592;48.764;9.174;2023-02-27T08:36:35;-0.80;99.90
1205;DHT22;592;48.764;9.174;2023-02-27T08:39:01;-0.80;99.90
1205;DHT22;592;48.764;9.174;2023-02-27T08:41:28;-0.70;99.90
1205;DHT22;592;48.764;9.174;2023-02-27T08:43:55;-0.60;99.90
1205;DHT22;592;48.764;9.174;2023-02-27T08:46:22;-0.60;99.90
1205;DHT22;592;48.764;9.174;2023-02-27T08:48:48;-0.50;99.90
1205;DHT22;592;48.764;9.174;2023-02-27T08:51:17;-0.50;99.90
1205;DHT22;592;48.764;9.174;2023-02-27T08:53:43;-0.40;99.90
1205;DHT22;592;48.764;9.174;2023-02-27T08:56:10;-0.40;99.90
1205;DHT22;592;48.764;9.174;2023-02-27T08:58:37;-0.30;99.90
1205;DHT22;592;48.764;9.174;2023-02-27T09:01:04;-0.20;99.90
1205;DHT22;592;48.764;9.174;2023-02-27T09:03:31;-0.20;99.90
1205;DHT22;592;48.764;9.174;2023-02-27T09:05:58;-0.10;99.90
1205;DHT22;592;48.764;9.174;2023-02-27T09:08:26;-0.20;99.90
1205;DHT22;592;48.764;9.174;2023-02-27T09:10:56;0.00;99.90
1205;DHT22;592;48.764;9.174;2023-02-27T09:13:22;0.00;99.90
1205;DHT22;592;48.764;9.174;2023-02-27T09:15:49;0.00;99.90
1205;DHT22;592;48.764;9.174;2023-02-27T09:18:16;0.10;99.90
1205;DHT22;592;48.764;9.174;2023-02-27T09:20:43;0.20;99.90
1205;DHT22;592;48.764;9.174;2023-02-27T09:23:10;0.20;99.90
1205;DHT22;592;48.764;9.174;2023-02-27T09:25:38;0.30;99.90
1205;DHT22;592;48.764;9.174;2023-02-27T09:28:05;0.30;99.90
1205;DHT22;592;48.764;9.174;2023-02-27T09:30:31;0.60;99.90
1205;DHT22;592;48.764;9.174;2023-02-27T09:32:58;0.50;99.90
1205;DHT22;592;48.764;9.174;2023-02-27T09:35:25;0.60;99.90
1205;DHT22;592;48.764;9.174;2023-02-27T09:37:52;0.60;99.90
1205;DHT22;592;48.764;9.174;2023-02-27T09:40:21;0.60;99.90
1205;DHT22;592;48.764;9.174;2023-02-27T09:42:51;0.70;99.90
1205;DHT22;592;48.764;9.174;2023-02-27T09:45:23;0.70;99.90
1205;DHT22;592;48.764;9.174;2023-02-27T09:47:52;0.80;99.90
1205;DHT22;592;48.764;9.174;2023-02-27T09:50:41;0.80;99.90
1205;DHT22;592;48.764;9.174;2023-02-27T09:53:12;0.90;99.90
1205;DHT22;592;48.764;9.174;2023-02-27T09:55:40;1.00;99.90
1205;DHT22;592;48.764;9.174;2023-02-27T09:58:28;1.00;99.90
1205;DHT22;592;48.764;9.174;2023-02-27T10:01:01;1.10;99.90
1205;DHT22;592;48.764;9.174;2023-02-27T10:04:03;1.20;99.90
1205;DHT22;592;48.764;9.174;2023-02-27T10:06:37;1.30;99.90
1205;DHT22;592;48.764;9.174;2023-02-27T10:09:18;1.40;99.90
1205;DHT22;592;48.764;9.174;2023-02-27T10:11:56;1.60;99.90
1205;DHT22;592;48.764;9.174;2023-02-27T10:14:36;1.60;99.90
1205;DHT22;592;48.764;9.174;2023-02-27T10:17:13;1.50;99.50
1205;DHT22;592;48.764;9.174;2023-02-27T10:19:43;1.50;99.50
1205;DHT22;592;48.764;9.174;2023-02-27T10:22:19;1.50;98.40
1205;DHT22;592;48.764;9.174;2023-02-27T10:24:50;1.50;98.80
1205;DHT22;592;48.764;9.174;2023-02-27T10:27:19;1.60;99.50
1205;DHT22;592;48.764;9.174;2023-02-27T10:29:48;1.70;99.40
1205;DHT22;592;48.764;9.174;2023-02-27T10:32:19;1.90;99.20
1205;DHT22;592;48.764;9.174;2023-02-27T10:34:50;2.00;98.90
1205;DHT22;592;48.764;9.174;2023-02-27T10:37:20;1.90;98.30
1205;DHT22;592;48.764;9.174;2023-02-27T10:39:52;1.80;98.60
1205;DHT22;592;48.764;9.174;2023-02-27T10:42:20;1.90;98.30
1205;DHT22;592;48.764;9.174;2023-02-27T10:44:48;2.00;98.40
1205;DHT22;592;48.764;9.174;2023-02-27T10:47:20;2.00;98.00
1205;DHT22;592;48.764;9.174;2023-02-27T10:49:47;2.10;98.30
1205;DHT22;592;48.764;9.174;2023-02-27T10:52:15;2.30;98.50
1205;DHT22;592;48.764;9.174;2023-02-27T10:54:43;2.40;98.20
1205;DHT22;592;48.764;9.174;2023-02-27T10:57:20;2.40;97.00
1205;DHT22;592;48.764;9.174;2023-02-27T10:59:54;2.30;96.30
1205;DHT22;592;48.764;9.174;2023-02-27T11:02:25;2.30;96.30
1205;DHT22;592;48.764;9.174;2023-02-27T11:04:56;2.30;96.20
1205;DHT22;592;48.764;9.174;2023-02-27T11:07:29;2.30;95.90
1205;DHT22;592;48.764;9.174;2023-02-27T11:10:15;2.30;95.70
1205;DHT22;592;48.764;9.174;2023-02-27T11:12:56;2.30;96.70
1205;DHT22;592;48.764;9.174;2023-02-27T11:15:27;2.40;96.70
1205;DHT22;592;48.764;9.174;2023-02-27T11:17:53;2.50;95.70
1205;DHT22;592;48.764;9.174;2023-02-27T11:20:32;2.50;95.90
1205;DHT22;592;48.764;9.174;2023-02-27T11:23:02;2.50;96.20
1205;DHT22;592;48.764;9.174;2023-02-27T11:25:29;2.60;96.60
1205;DHT22;592;48.764;9.174;2023-02-27T11:28:12;2.50;96.20
1205;DHT22;592;48.764;9.174;2023-02-27T11:30:41;2.50;95.90
1205;DHT22;592;48.764;9.174;2023-02-27T11:33:16;2.60;95.50
1205;DHT22;592;48.764;9.174;2023-02-27T11:35:49;2.60;95.90
1205;DHT22;592;48.764;9.174;2023-02-27T11:38:19;2.70;96.20
1205;DHT22;592;48.764;9.174;2023-02-27T11:40:50;2.60;96.00
1205;DHT22;592;48.764;9.174;2023-02-27T11:43:20;2.60;95.50
1205;DHT22;592;48.764;9.174;2023-02-27T11:45:54;2.60;96.00
1205;DHT22;592;48.764;9.174;2023-02-27T11:48:25;2.70;96.30
1205;DHT22;592;48.764;9.174;2023-02-27T11:51:03;2.60;96.20
1205;DHT22;592;48.764;9.174;2023-02-27T11:54:02;2.50;96.00
1205;DHT22;592;48.764;9.174;2023-02-27T11:56:35;2.50;96.30
1205;DHT22;592;48.764;9.174;2023-02-27T11:59:09;2.50;96.00
1205;DHT22;592;48.764;9.174;2023-02-27T12:01:44;2.60;95.60
1205;DHT22;592;48.764;9.174;2023-02-27T12:04:18;2.60;96.00
1205;DHT22;592;48.764;9.174;2023-02-27T12:06:53;2.50;96.30
1205;DHT22;592;48.764;9.174;2023-02-27T12:09:37;2.40;96.40
1205;DHT22;592;48.764;9.174;2023-02-27T12:12:08;2.40;96.20
1205;DHT22;592;48.764;9.174;2023-02-27T12:14:45;2.60;96.30
1205;DHT22;592;48.764;9.174;2023-02-27T12:17:21;2.70;96.30
1205;DHT22;592;48.764;9.174;2023-02-27T12:19:59;2.70;96.10
1205;DHT22;592;48.764;9.174;2023-02-27T12:22:30;2.80;96.10
1205;DHT22;592;48.764;9.174;2023-02-27T12:25:03;3.00;96.00
1205;DHT22;592;48.764;9.174;2023-02-27T12:27:40;3.20;96.00
1205;DHT22;592;48.764;9.174;2023-02-27T12:30:14;3.10;96.10
1205;DHT22;592;48.764;9.174;2023-02-27T12:32:47;3.10;95.90
1205;DHT22;592;48.764;9.174;2023-02-27T12:35:16;3.00;95.40
1205;DHT22;592;48.764;9.174;2023-02-27T12:37:45;2.90;95.00
1205;DHT22;592;48.764;9.174;2023-02-27T12:40:14;3.00;95.80
1205;DHT22;592;48.764;9.174;2023-02-27T12:43:02;3.00;95.50
1205;DHT22;592;48.764;9.174;2023-02-27T12:45:50;3.10;95.50
1205;DHT22;592;48.764;9.174;2023-02-27T12:48:30;2.80;95.60
1205;DHT22;592;48.764;9.174;2023-02-27T12:51:06;2.70;96.10
1205;DHT22;592;48.764;9.174;2023-02-27T12:53:55;2.70;96.00
1205;DHT22;592;48.764;9.174;2023-02-27T12:56:23;2.60;95.80
1205;DHT22;592;48.764;9.174;2023-02-27T12:58:57;2.80;95.80
1205;DHT22;592;48.764;9.174;2023-02-27T13:01:36;2.90;95.60
1205;DHT22;592;48.764;9.174;2023-02-27T13:04:16;2.90;95.80
1205;DHT22;592;48.764;9.174;2023-02-27T13:06:48;2.80;95.90
1205;DHT22;592;48.764;9.174;2023-02-27T13:09:23;2.80;95.60
1205;DHT22;592;48.764;9.174;2023-02-27T13:12:02;2.80;95.50
1205;DHT22;592;48.764;9.174;2023-02-27T13:14:41;2.80;95.60
1205;DHT22;592;48.764;9.174;2023-02-27T13:17:17;2.70;95.70
1205;DHT22;592;48.764;9.174;2023-02-27T13:19:49;2.70;95.90
1205;DHT22;592;48.764;9.174;2023-02-27T13:22:22;2.60;95.80
1205;DHT22;592;48.764;9.174;2023-02-27T13:24:55;2.60;96.30
1205;DHT22;592;48.764;9.174;2023-02-27T13:27:25;2.70;96.30
1205;DHT22;592;48.764;9.174;2023-02-27T13:30:03;2.70;96.00
1205;DHT22;592;48.764;9.174;2023-02-27T13:32:39;3.00;96.00
1205;DHT22;592;48.764;9.174;2023-02-27T13:35:16;3.10;95.20
1205;DHT22;592;48.764;9.174;2023-02-27T13:37:49;2.80;94.80
1205;DHT22;592;48.764;9.174;2023-02-27T13:40:40;2.80;95.30
1205;DHT22;592;48.764;9.174;2023-02-27T13:43:27;2.80;95.60
1205;DHT22;592;48.764;9.174;2023-02-27T13:45:56;2.80;95.90
1205;DHT22;592;48.764;9.174;2023-02-27T13:48:46;2.60;95.60
1205;DHT22;592;48.764;9.174;2023-02-27T13:51:40;2.60;95.70
1205;DHT22;592;48.764;9.174;2023-02-27T13:54:33;2.70;95.60
1205;DHT22;592;48.764;9.174;2023-02-27T13:57:16;3.00;95.90
1205;DHT22;592;48.764;9.174;2023-02-27T13:59:54;3.10;95.50
1205;DHT22;592;48.764;9.174;2023-02-27T14:02:30;3.40;95.70
1205;DHT22;592;48.764;9.174;2023-02-27T14:05:01;3.60;95.40
1205;DHT22;592;48.764;9.174;2023-02-27T14:07:32;3.90;95.00
1205;DHT22;592;48.764;9.174;2023-02-27T14:10:01;4.10;95.00
1205;DHT22;592;48.764;9.174;2023-02-27T14:12:31;3.90;94.50
1205;DHT22;592;48.764;9.174;2023-02-27T14:14:59;4.00;94.90
1205;DHT22;592;48.764;9.174;2023-02-27T14:17:39;4.10;94.40
1205;DHT22;592;48.764;9.174;2023-02-27T14:20:12;3.30;95.30
1205;DHT22;592;48.764;9.174;2023-02-27T14:25:44;3.00;95.70
1205;DHT22;592;48.764;9.174;2023-02-27T14:28:18;3.00;95.90
1205;DHT22;592;48.764;9.174;2023-02-27T14:30:52;3.00;95.80
1205;DHT22;592;48.764;9.174;2023-02-27T14:33:22;3.10;95.70
1205;DHT22;592;48.764;9.174;2023-02-27T14:35:55;3.30;95.90
1205;DHT22;592;48.764;9.174;2023-02-27T14:38:25;3.90;95.60
1205;DHT22;592;48.764;9.174;2023-02-27T14:41:03;3.60;95.50
1205;DHT22;592;48.764;9.174;2023-02-27T14:43:37;3.30;94.80
1205;DHT22;592;48.764;9.174;2023-02-27T14:46:15;3.00;95.60
1205;DHT22;592;48.764;9.174;2023-02-27T14:48:44;2.90;95.80
1205;DHT22;592;48.764;9.174;2023-02-27T14:51:11;2.90;96.20
1205;DHT22;592;48.764;9.174;2023-02-27T14:53:38;2.80;95.60
1205;DHT22;592;48.764;9.174;2023-02-27T14:56:17;2.60;95.20
1205;DHT22;592;48.764;9.174;2023-02-27T14:58:46;2.60;95.30
1205;DHT22;592;48.764;9.174;2023-02-27T15:01:14;2.50;95.60
1205;DHT22;592;48.764;9.174;2023-02-27T15:03:45;2.50;95.80
1205;DHT22;592;48.764;9.174;2023-02-27T15:06:16;2.50;95.70
1205;DHT22;592;48.764;9.174;2023-02-27T15:08:47;2.50;95.80
1205;DHT22;592;48.764;9.174;2023-02-27T15:11:18;2.50;96.20
1205;DHT22;592;48.764;9.174;2023-02-27T15:13:47;2.50;96.20
1205;DHT22;592;48.764;9.174;2023-02-27T15:16:35;2.30;95.70
1205;DHT22;592;48.764;9.174;2023-02-27T15:19:13;2.30;95.80
1205;DHT22;592;48.764;9.174;2023-02-27T15:21:43;2.30;95.90
1205;DHT22;592;48.764;9.174;2023-02-27T15:24:24;2.20;95.80
1205;DHT22;592;48.764;9.174;2023-02-27T15:26:56;2.20;95.50
1205;DHT22;592;48.764;9.174;2023-02-27T15:29:25;2.20;95.90
1205;DHT22;592;48.764;9.174;2023-02-27T15:31:55;2.20;95.90
1205;DHT22;592;48.764;9.174;2023-02-27T15:34:22;2.10;95.90
1205;DHT22;592;48.764;9.174;2023-02-27T15:36:51;2.00;95.80
1205;DHT22;592;48.764;9.174;2023-02-27T15:39:20;2.10;96.30
1205;DHT22;592;48.764;9.174;2023-02-27T15:41:49;2.00;95.90
1205;DHT22;592;48.764;9.174;2023-02-27T15:44:19;1.90;96.20
1205;DHT22;592;48.764;9.174;2023-02-27T15:46:47;1.90;96.40
1205;DHT22;592;48.764;9.174;2023-02-27T15:49:15;1.90;96.30
1205;DHT22;592;48.764;9.174;2023-02-27T15:51:42;2.00;96.50
1205;DHT22;592;48.764;9.174;2023-02-27T15:54:12;1.90;96.10
1205;DHT22;592;48.764;9.174;2023-02-27T15:56:40;1.90;96.00
1205;DHT22;592;48.764;9.174;2023-02-27T15:59:08;1.90;96.20
1205;DHT22;592;48.764;9.174;2023-02-27T16:01:40;1.80;96.10
1205;DHT22;592;48.764;9.174;2023-02-27T16:04:16;1.90;96.60
1205;DHT22;592;48.764;9.174;2023-02-27T16:06:47;1.90;96.40
1205;DHT22;592;48.764;9.174;2023-02-27T16:09:20;1.90;96.40
1205;DHT22;592;48.764;9.174;2023-02-27T16:11:47;1.90;96.40
1205;DHT22;592;48.764;9.174;2023-02-27T16:14:37;1.90;96.50
1205;DHT22;592;48.764;9.174;2023-02-27T16:17:23;1.80;96.20
1205;DHT22;592;48.764;9.174;2023-02-27T16:19:49;1.70;96.10
1205;DHT22;592;48.764;9.174;2023-02-27T16:22:19;1.70;96.30
1205;DHT22;592;48.764;9.174;2023-02-27T16:24:47;1.60;95.90
1205;DHT22;592;48.764;9.174;2023-02-27T16:27:21;1.70;96.70
1205;DHT22;592;48.764;9.174;2023-02-27T16:29:49;1.70;96.60
1205;DHT22;592;48.764;9.174;2023-02-27T16:32:23;1.70;96.30
1205;DHT22;592;48.764;9.174;2023-02-27T16:34:51;1.60;96.60
1205;DHT22;592;48.764;9.174;2023-02-27T16:37:32;1.60;96.70
1205;DHT22;592;48.764;9.174;2023-02-27T16:40:00;1.60;96.80
1205;DHT22;592;48.764;9.174;2023-02-27T16:42:28;1.60;97.10
1205;DHT22;592;48.764;9.174;2023-02-27T16:44:55;1.60;97.10
1205;DHT22;592;48.764;9.174;2023-02-27T16:47:23;1.60;97.10
1205;DHT22;592;48.764;9.174;2023-02-27T16:49:50;1.60;97.40
1205;DHT22;592;48.764;9.174;2023-02-27T16:52:16;1.60;97.60
1205;DHT22;592;48.764;9.174;2023-02-27T16:54:47;1.60;97.10
1205;DHT22;592;48.764;9.174;2023-02-27T16:57:13;1.60;97.10
1205;DHT22;592;48.764;9.174;2023-02-27T16:59:42;1.60;97.10
1205;DHT22;592;48.764;9.174;2023-02-27T17:02:11;1.50;96.60
1205;DHT22;592;48.764;9.174;2023-02-27T17:04:39;1.50;96.50